Terminal Aerodrome Forecast
Issued by NWS Omaha/Valley, NE

Home | Current Version | Previous Version | Graphics & Text | Print | Product List | Glossary On
Versions: 1 2 3 4 5 6 7 8 9 10 11 12 13 14 15 16 17 18 19 20 21 22 23 24 25 26 27 28 29 30 31 32 33 34
000
FTUS43 KOAX 222330
TAFOFK
TAF
KOFK 222330Z 2300/2324 31010KT P6SM SCT015 OVC040
     FM230300 32010KT 5SM BR OVC025
      TEMPO 2306/2309 4SM -SN OVC012
     FM230900 34012KT 1SM -SN BR OVC004
     FM231400 34015G25KT 2SM -SN BR OVC006=

USA.gov is the U.S. government's official web portal to all federal, state and local government web resources and services.